Time;durP1;ratioP1;P1;durP2;ratioP2;P2;SDS_P1;SDS_P2;PMS_P1;PMS_P2;Temp;Humidity;BMP_temperature;BMP_pressure;BME280_temperature;BME280_humidity;BME280_pressure;Samples;Min_cycle;Max_cycle;Signal;HPM_P1;HPM_P2
2021/10/05 00:01:13;;;;;;;54.50;49.00;;;;;;;12.97;74.03;100644.61;116796;1192;22924;-78
2021/10/05 00:03:42;;;;;;;58.70;52.70;;;;;;;12.94;74.07;100643.38;116837;1191;23616;-78
2021/10/05 00:06:12;;;;;;;57.00;51.30;;;;;;;12.91;74.07;100642.99;116802;1187;21930;-77
2021/10/05 00:08:44;;;;;;;60.00;53.70;;;;;;;12.88;74.26;100638.54;116830;1191;21879;-77
2021/10/05 00:11:15;;;;;;;61.70;55.20;;;;;;;12.86;74.28;100632.59;116811;1191;21892;-77
2021/10/05 00:13:44;;;;;;;61.40;54.90;;;;;;;12.84;74.20;100628.38;116806;1190;21913;-77
2021/10/05 00:16:13;;;;;;;58.90;52.80;;;;;;;12.81;74.21;100626.09;116526;1190;23693;-77
2021/10/05 00:18:43;;;;;;;58.40;52.10;;;;;;;12.78;74.21;100624.28;116599;1189;23628;-77
2021/10/05 00:21:14;;;;;;;58.80;52.50;;;;;;;12.77;74.19;100620.24;116854;1190;21897;-77
2021/10/05 00:23:49;;;;;;;61.60;54.80;;;;;;;12.76;74.44;100615.22;116849;1187;21896;-76
2021/10/05 00:26:18;;;;;;;62.90;56.50;;;;;;;12.75;74.49;100613.87;116775;1190;22041;-77
2021/10/05 00:28:47;;;;;;;63.00;56.30;;;;;;;12.75;74.51;100616.38;116838;1187;21917;-77
2021/10/05 00:31:16;;;;;;;61.00;54.60;;;;;;;12.73;74.47;100619.02;116868;1190;23442;-77
2021/10/05 00:33:46;;;;;;;61.10;54.60;;;;;;;12.71;74.46;100619.39;116841;1183;23458;-77
2021/10/05 00:36:15;;;;;;;62.20;55.60;;;;;;;12.69;74.52;100618.40;117069;1188;21885;-77
2021/10/05 00:38:44;;;;;;;60.20;53.40;;;;;;;12.66;74.29;100617.87;117059;1188;21892;-77
2021/10/05 00:41:14;;;;;;;60.20;53.80;;;;;;;12.63;74.30;100612.11;117046;1188;21874;-77
2021/10/05 00:43:43;;;;;;;59.50;53.20;;;;;;;12.58;74.27;100611.54;117010;1187;21908;-77
2021/10/05 00:46:12;;;;;;;62.40;56.00;;;;;;;12.54;74.29;100608.66;117116;1188;23851;-77
2021/10/05 00:48:42;;;;;;;61.60;55.00;;;;;;;12.49;74.23;100605.82;117083;1188;23006;-77
2021/10/05 00:51:11;;;;;;;60.10;53.50;;;;;;;12.46;74.33;100602.86;117056;1188;23543;-77
2021/10/05 00:53:41;;;;;;;63.20;56.20;;;;;;;12.44;74.40;100600.46;116992;1187;22286;-77
2021/10/05 00:56:10;;;;;;;63.00;56.40;;;;;;;12.44;74.61;100598.34;117094;1185;22906;-77
2021/10/05 00:58:39;;;;;;;62.80;56.20;;;;;;;12.44;74.60;100595.52;117135;1188;23503;-77
2021/10/05 01:01:09;;;;;;;63.10;55.90;;;;;;;12.41;74.49;100593.48;117057;1183;21886;-77
2021/10/05 01:03:40;;;;;;;64.00;56.50;;;;;;;12.39;74.56;100587.80;117070;1188;22905;-77
2021/10/05 01:06:11;;;;;;;61.00;54.60;;;;;;;12.38;74.83;100581.22;117086;1188;22485;-77
2021/10/05 01:08:40;;;;;;;71.70;61.10;;;;;;;12.35;74.83;100576.90;117066;1188;22847;-77
2021/10/05 01:11:09;;;;;;;66.70;59.40;;;;;;;12.34;74.85;100574.15;117128;1184;23551;-78
2021/10/05 01:13:38;;;;;;;68.60;61.30;;;;;;;12.35;74.97;100576.00;117034;1188;23545;-77
2021/10/05 01:16:08;;;;;;;66.60;57.80;;;;;;;12.36;75.07;100578.42;117130;1188;23455;-78
2021/10/05 01:18:40;;;;;;;69.10;60.80;;;;;;;12.38;75.14;100580.52;117108;1188;21882;-78
2021/10/05 01:21:09;;;;;;;71.40;63.90;;;;;;;12.38;75.17;100574.50;117087;1188;21894;-77
2021/10/05 01:23:38;;;;;;;66.80;58.40;;;;;;;12.37;75.04;100571.59;117054;1187;21888;-77
2021/10/05 01:26:08;;;;;;;60.10;53.60;;;;;;;12.35;74.92;100570.05;117044;1181;21888;-77
2021/10/05 01:28:37;;;;;;;64.70;57.10;;;;;;;12.30;74.76;100570.23;117096;1188;21894;-77
2021/10/05 01:31:06;;;;;;;61.90;55.30;;;;;;;12.25;74.61;100564.39;117040;1188;21880;-78
2021/10/05 01:33:40;;;;;;;65.70;58.50;;;;;;;12.22;74.77;100557.20;117078;1188;23433;-77
2021/10/05 01:36:10;;;;;;;72.80;64.80;;;;;;;12.20;74.89;100556.90;116876;1188;21869;-78
2021/10/05 01:38:39;;;;;;;75.10;67.00;;;;;;;12.19;75.23;100557.91;117036;1188;21905;-77
2021/10/05 01:41:08;;;;;;;77.50;68.30;;;;;;;12.18;75.35;100553.86;117091;1188;22074;-77
2021/10/05 01:43:37;;;;;;;75.70;67.80;;;;;;;12.19;75.51;100551.55;117087;1188;24216;-77
2021/10/05 01:46:11;;;;;;;76.40;68.30;;;;;;;12.17;75.41;100551.98;116843;1190;22832;-77
2021/10/05 01:48:42;;;;;;;78.30;69.30;;;;;;;12.10;75.49;100546.27;116850;1187;21903;-77
2021/10/05 01:51:12;;;;;;;78.90;70.30;;;;;;;12.05;75.88;100542.38;116861;1190;21888;-77
2021/10/05 01:53:41;;;;;;;80.00;69.70;;;;;;;12.06;76.19;100542.08;116809;1190;22341;-77
2021/10/05 01:56:10;;;;;;;79.90;71.40;;;;;;;12.07;76.33;100538.83;116852;1190;21953;-78
2021/10/05 01:58:40;;;;;;;80.30;71.50;;;;;;;12.07;76.43;100536.84;116956;1186;22909;-78
2021/10/05 02:01:09;;;;;;;76.50;68.50;;;;;;;12.08;76.51;100536.73;116812;1187;21887;-78
2021/10/05 02:03:41;;;;;;;81.40;71.30;;;;;;;12.10;76.60;100526.77;116940;1187;21873;-78
2021/10/05 02:06:10;;;;;;;80.80;70.40;;;;;;;12.12;76.67;100519.80;116934;1187;21866;-78
2021/10/05 02:08:39;;;;;;;77.20;68.80;;;;;;;12.13;76.50;100516.35;117117;1185;22668;-78
2021/10/05 02:11:09;;;;;;;76.30;67.50;;;;;;;12.12;76.46;100510.84;117153;1182;21921;-78
2021/10/05 02:13:40;;;;;;;77.90;69.40;;;;;;;12.08;76.16;100511.15;117138;1186;22720;-78
2021/10/05 02:16:09;;;;;;;79.00;70.90;;;;;;;12.04;76.27;100513.34;117091;1182;21882;-77
2021/10/05 02:18:39;;;;;;;75.80;68.20;;;;;;;11.98;76.33;100512.04;117040;1188;24149;-77
2021/10/05 02:21:08;;;;;;;79.60;71.10;;;;;;;11.93;76.52;100512.59;117075;1181;23460;-77
2021/10/05 02:24:07;;;;;;;80.80;72.10;;;;;;;11.95;77.03;100513.48;117053;1188;21931;-78
2021/10/05 02:26:26;;;;;;;79.50;70.90;;;;;;;11.98;77.33;100512.08;116867;1190;21877;-77
2021/10/05 02:28:56;;;;;;;85.40;73.10;;;;;;;12.01;77.30;100511.05;116769;1191;22927;-77
2021/10/05 02:31:25;;;;;;;81.70;73.20;;;;;;;12.02;77.13;100513.94;116823;1191;22906;-77
2021/10/05 02:33:54;;;;;;;80.00;71.50;;;;;;;11.98;76.90;100516.83;116848;1191;21882;-78
2021/10/05 02:36:25;;;;;;;83.70;74.60;;;;;;;11.95;77.08;100518.05;116782;1190;21897;-77
2021/10/05 02:38:54;;;;;;;84.00;75.40;;;;;;;11.92;77.06;100519.81;116817;1191;23496;-77
2021/10/05 02:41:23;;;;;;;84.50;75.60;;;;;;;11.86;77.10;100519.39;116933;1190;23473;-77
2021/10/05 02:43:52;;;;;;;87.50;76.40;;;;;;;11.81;77.16;100520.69;116768;1188;21913;-76
2021/10/05 02:46:21;;;;;;;83.90;74.80;;;;;;;11.77;77.31;100522.13;116918;1187;21908;-77
2021/10/05 02:48:50;;;;;;;87.30;77.90;;;;;;;11.73;77.45;100520.23;117141;1188;22043;-77
2021/10/05 02:51:20;;;;;;;84.20;75.40;;;;;;;11.72;77.66;100523.98;116788;1191;21880;-77
2021/10/05 02:53:49;;;;;;;85.40;75.50;;;;;;;11.68;77.43;100527.38;116755;1191;21879;-77
2021/10/05 02:56:18;;;;;;;85.40;76.00;;;;;;;11.64;77.41;100528.59;116607;1193;21939;-78
2021/10/05 02:58:47;;;;;;;83.90;75.30;;;;;;;11.59;77.43;100525.02;116541;1193;22198;-77
2021/10/05 03:01:16;;;;;;;84.90;72.10;;;;;;;11.54;77.57;100520.88;116499;1190;21898;-77
2021/10/05 03:03:49;;;;;;;85.90;76.90;;;;;;;11.52;77.91;100518.69;116388;1195;23492;-77
2021/10/05 03:06:19;;;;;;;78.60;70.30;;;;;;;11.55;77.94;100518.29;116435;1192;22357;-77
2021/10/05 03:08:52;;;;;;;83.40;73.40;;;;;;;11.54;77.93;100514.25;116442;1193;21884;-77
2021/10/05 03:11:22;;;;;;;87.30;76.20;;;;;;;11.54;77.87;100504.48;116513;1193;24148;-77
2021/10/05 03:13:51;;;;;;;81.60;72.50;;;;;;;11.52;77.79;100499.02;116540;1184;21901;-78
2021/10/05 03:16:20;;;;;;;76.70;68.20;;;;;;;11.52;77.98;100497.06;116793;1191;23457;-78
2021/10/05 03:18:49;;;;;;;84.00;74.90;;;;;;;11.54;77.97;100495.77;116829;1188;21900;-79
2021/10/05 03:21:19;;;;;;;82.70;73.70;;;;;;;11.56;77.95;100495.40;117026;1185;21893;-77
2021/10/05 03:23:48;;;;;;;87.70;77.00;;;;;;;11.57;77.96;100492.41;117096;1188;22045;-79
2021/10/05 03:26:20;;;;;;;83.60;74.50;;;;;;;11.58;77.80;100486.39;117075;1185;23528;-78
2021/10/05 03:28:49;;;;;;;79.40;70.90;;;;;;;11.56;77.62;100479.86;116995;1190;21903;-77
2021/10/05 03:31:19;;;;;;;83.70;73.30;;;;;;;11.56;77.55;100479.36;116819;1190;21879;-78
2021/10/05 03:33:48;;;;;;;81.30;72.50;;;;;;;11.56;77.45;100473.20;116930;1190;21940;-77
2021/10/05 03:36:17;;;;;;;83.10;74.40;;;;;;;11.55;77.40;100474.48;116835;1187;22349;-78
2021/10/05 03:38:46;;;;;;;84.60;75.20;;;;;;;11.57;77.53;100474.10;116874;1187;21905;-77
2021/10/05 03:41:16;;;;;;;90.60;81.00;;;;;;;11.59;77.58;100468.56;116822;1191;22715;-77
2021/10/05 03:43:45;;;;;;;85.20;75.90;;;;;;;11.63;77.80;100467.98;116840;1190;21892;-78
2021/10/05 03:46:14;;;;;;;82.60;73.40;;;;;;;11.67;77.93;100464.56;116930;1188;21899;-78
2021/10/05 03:48:43;;;;;;;81.90;73.20;;;;;;;11.69;77.63;100460.79;117075;1184;21897;-78
2021/10/05 03:51:13;;;;;;;79.90;71.40;;;;;;;11.68;77.35;100456.95;117071;1188;21886;-78
2021/10/05 03:53:42;;;;;;;81.60;71.80;;;;;;;11.68;77.28;100450.46;117060;1188;22035;-79
2021/10/05 03:56:11;;;;;;;87.20;77.70;;;;;;;11.69;77.33;100447.75;116812;1191;21882;-78
2021/10/05 03:58:41;;;;;;;90.30;81.10;;;;;;;11.70;77.59;100445.38;116829;1187;22353;-78
2021/10/05 04:01:13;;;;;;;90.10;81.00;;;;;;;11.72;77.76;100442.08;116809;1191;23458;-78
2021/10/05 04:03:42;;;;;;;94.30;84.30;;;;;;;11.74;77.96;100435.81;116509;1191;21988;-78
2021/10/05 04:06:12;;;;;;;96.40;86.50;;;;;;;11.78;78.17;100438.39;116468;1194;23441;-78
2021/10/05 04:08:41;;;;;;;96.60;86.30;;;;;;;11.80;78.09;100437.64;116532;1182;22907;-78
2021/10/05 04:11:11;;;;;;;104.60;91.00;;;;;;;11.79;78.05;100435.49;116527;1194;21901;-78
2021/10/05 04:13:40;;;;;;;100.20;90.10;;;;;;;11.77;78.21;100433.55;116286;1193;23014;-78
2021/10/05 04:16:10;;;;;;;100.70;90.00;;;;;;;11.76;78.24;100433.32;116522;1192;22216;-78
2021/10/05 04:18:39;;;;;;;97.90;85.60;;;;;;;11.78;78.42;100433.64;116470;1194;21901;-79
2021/10/05 04:21:09;;;;;;;95.50;85.30;;;;;;;11.81;78.51;100438.06;116271;1193;23750;-79
2021/10/05 04:23:38;;;;;;;97.00;86.70;;;;;;;11.83;78.55;100435.25;116524;1196;21991;-78
2021/10/05 04:26:07;;;;;;;93.70;84.10;;;;;;;11.84;78.51;100437.01;116403;1196;21936;-79
2021/10/05 04:28:36;;;;;;;95.40;83.80;;;;;;;11.86;78.51;100437.23;116133;1198;22071;-78
2021/10/05 04:31:06;;;;;;;95.90;86.20;;;;;;;11.88;78.56;100441.23;116168;1193;21912;-79
2021/10/05 04:33:35;;;;;;;92.50;82.70;;;;;;;11.87;78.36;100441.67;116318;1196;21897;-79
2021/10/05 04:36:05;;;;;;;89.10;79.80;;;;;;;11.86;78.37;100440.52;116280;1196;22853;-78
2021/10/05 04:38:35;;;;;;;88.50;79.40;;;;;;;11.85;78.43;100439.39;116265;1195;23464;-79
2021/10/05 04:41:04;;;;;;;84.50;75.60;;;;;;;11.84;78.47;100438.25;116467;1192;21886;-79
2021/10/05 04:43:33;;;;;;;84.50;75.50;;;;;;;11.83;78.36;100435.88;116795;1191;21886;-78
2021/10/05 04:46:02;;;;;;;83.50;75.10;;;;;;;11.83;78.30;100430.65;116822;1188;21898;-79
2021/10/05 04:48:31;;;;;;;86.70;77.30;;;;;;;11.83;78.47;100427.52;116802;1192;21918;-79
2021/10/05 04:51:00;;;;;;;86.20;77.10;;;;;;;11.81;78.46;100428.58;116839;1192;22910;-78
2021/10/05 04:53:29;;;;;;;88.30;77.60;;;;;;;11.79;78.43;100427.89;116848;1190;21895;-78
2021/10/05 04:56:00;;;;;;;86.90;77.80;;;;;;;11.80;78.63;100427.48;116651;1189;21900;-78
2021/10/05 04:58:31;;;;;;;85.80;77.00;;;;;;;11.80;78.61;100424.23;116700;1192;21897;-78
2021/10/05 05:01:02;;;;;;;84.70;75.80;;;;;;;11.81;78.86;100421.85;116807;1192;22909;-78
2021/10/05 05:03:31;;;;;;;85.40;76.90;;;;;;;11.82;78.77;100416.96;116845;1191;22913;-79
2021/10/05 05:06:04;;;;;;;86.00;77.10;;;;;;;11.81;78.68;100410.35;116840;1189;21888;-78
2021/10/05 05:08:33;;;;;;;84.10;75.50;;;;;;;11.77;78.64;100410.39;116840;1191;23559;-78
2021/10/05 05:11:03;;;;;;;83.40;74.70;;;;;;;11.76;78.72;100408.45;116783;1193;21909;-79
2021/10/05 05:13:32;;;;;;;84.20;75.70;;;;;;;11.77;78.94;100407.25;116544;1190;21900;-78
2021/10/05 05:16:01;;;;;;;80.80;72.50;;;;;;;11.77;78.92;100405.88;116735;1189;21900;-78
2021/10/05 05:18:31;;;;;;;80.80;72.60;;;;;;;11.75;78.90;100401.14;116763;1192;21896;-78
2021/10/05 05:21:00;;;;;;;78.80;70.20;;;;;;;11.74;78.96;100399.00;116802;1190;21877;-78
2021/10/05 05:23:29;;;;;;;77.10;69.50;;;;;;;11.75;79.11;100397.11;116511;1193;21888;-78
2021/10/05 05:25:59;;;;;;;76.50;68.50;;;;;;;11.78;79.16;100392.92;116275;1192;22836;-78
2021/10/05 05:28:28;;;;;;;75.60;68.00;;;;;;;11.79;79.05;100395.23;116828;1190;22524;-78
2021/10/05 05:30:57;;;;;;;73.90;66.50;;;;;;;11.77;79.08;100398.48;116904;1190;22347;-77
2021/10/05 05:33:27;;;;;;;77.60;69.70;;;;;;;11.76;79.14;100395.73;116988;1190;21887;-77
2021/10/05 05:35:56;;;;;;;72.10;64.70;;;;;;;11.76;79.13;100395.77;116953;1187;21898;-79
2021/10/05 05:38:26;;;;;;;73.80;66.40;;;;;;;11.76;79.31;100399.77;116945;1190;21984;-77
2021/10/05 05:40:55;;;;;;;74.60;67.10;;;;;;;11.77;79.30;100400.34;116950;1190;21975;-78
2021/10/05 05:43:26;;;;;;;71.80;64.40;;;;;;;11.80;79.41;100396.15;116969;1189;22924;-79
2021/10/05 05:45:55;;;;;;;74.30;66.30;;;;;;;11.84;79.51;100393.83;116949;1187;22055;-78
2021/10/05 05:48:25;;;;;;;70.60;63.60;;;;;;;11.87;79.57;100393.29;116814;1191;22856;-78
2021/10/05 05:50:54;;;;;;;71.40;64.40;;;;;;;11.90;79.46;100392.13;116856;1191;21899;-78
2021/10/05 05:53:23;;;;;;;68.70;61.50;;;;;;;11.94;79.49;100386.66;116818;1191;21948;-78
2021/10/05 05:55:52;;;;;;;70.40;63.00;;;;;;;12.00;79.58;100388.94;116856;1191;21883;-78
2021/10/05 05:58:24;;;;;;;;;;;;;;;12.08;79.55;100388.60;116790;1191;23556;-77
2021/10/05 06:00:54;;;;;;;65.00;58.50;;;;;;;12.08;79.74;100379.98;116828;1191;21874;-78
2021/10/05 06:03:23;;;;;;;64.70;58.30;;;;;;;12.10;79.73;100370.09;116851;1187;23437;-77
2021/10/05 06:05:53;;;;;;;66.00;59.20;;;;;;;12.15;79.69;100365.33;116810;1190;24718;-77
2021/10/05 06:08:22;;;;;;;65.40;58.60;;;;;;;12.23;79.58;100364.07;117063;1176;23071;-77
2021/10/05 06:10:51;;;;;;;60.00;54.00;;;;;;;12.30;79.59;100364.10;117092;1189;21888;-77
2021/10/05 06:13:21;;;;;;;59.10;53.10;;;;;;;12.38;79.61;100356.52;117112;1185;21973;-78
2021/10/05 06:15:50;;;;;;;58.00;52.00;;;;;;;12.44;79.46;100353.28;117086;1189;23867;-77
2021/10/05 06:18:19;;;;;;;55.40;49.90;;;;;;;12.50;79.46;100351.75;117140;1188;23550;-77
2021/10/05 06:20:48;;;;;;;57.00;50.70;;;;;;;12.56;79.34;100345.90;117127;1189;22912;-78
2021/10/05 06:23:18;;;;;;;55.40;49.90;;;;;;;12.63;79.25;100345.27;117094;1188;23463;-78
2021/10/05 06:25:51;;;;;;;55.70;50.50;;;;;;;12.69;79.25;100348.41;117096;1188;21871;-78
2021/10/05 06:28:21;;;;;;;56.10;50.10;;;;;;;12.78;79.23;100352.24;117117;1189;23624;-78
2021/10/05 06:30:51;;;;;;;53.60;48.40;;;;;;;12.86;79.10;100351.55;117199;1189;22240;-78
2021/10/05 06:33:24;;;;;;;55.20;49.60;;;;;;;12.94;79.10;100349.86;116772;1180;21909;-81
2021/10/05 06:35:57;;;;;;;53.10;47.60;;;;;;;13.03;78.92;100348.99;116765;1186;21897;-78
2021/10/05 06:38:26;;;;;;;55.30;49.20;;;;;;;13.12;78.86;100349.20;116525;1192;23051;-79
2021/10/05 06:40:58;;;;;;;53.60;47.90;;;;;;;13.21;78.83;100349.39;116632;1192;22742;-78
2021/10/05 06:43:27;;;;;;;49.50;44.60;;;;;;;13.31;78.64;100345.35;116789;1192;22610;-78
2021/10/05 06:45:59;;;;;;;51.50;46.00;;;;;;;13.41;78.57;100337.06;116779;1189;22340;-81
2021/10/05 06:48:29;;;;;;;50.90;45.40;;;;;;;13.50;78.38;100330.93;116525;1187;21964;-80
2021/10/05 06:50:59;;;;;;;51.10;45.70;;;;;;;13.64;78.41;100331.77;116495;1186;21893;-80
2021/10/05 06:53:31;;;;;;;48.00;43.00;;;;;;;13.79;78.49;100328.52;116725;1192;21910;-80
2021/10/05 06:56:01;;;;;;;49.00;43.70;;;;;;;13.97;78.51;100330.49;116767;1192;23460;-80
2021/10/05 06:58:33;;;;;;;46.10;41.50;;;;;;;14.16;78.04;100335.27;116789;1192;21923;-79
2021/10/05 07:01:02;;;;;;;46.60;41.70;;;;;;;14.35;77.97;100330.37;116860;1192;21885;-79
2021/10/05 07:03:33;;;;;;;44.30;39.50;;;;;;;14.62;78.55;100332.30;116782;1192;23438;-78
2021/10/05 07:06:04;;;;;;;48.40;40.70;;;;;;;14.97;78.25;100331.89;116848;1189;22320;-79
2021/10/05 07:08:34;;;;;;;44.80;40.10;;;;;;;15.32;77.79;100331.48;117111;1188;23553;-79
2021/10/05 07:11:03;;;;;;;42.80;38.60;;;;;;;15.69;77.11;100329.71;116944;1187;23542;-79
2021/10/05 07:13:32;;;;;;;40.60;36.50;;;;;;;15.98;75.64;100326.12;116875;1191;21894;-79
2021/10/05 07:16:02;;;;;;;40.50;36.20;;;;;;;16.28;74.75;100321.98;116827;1191;21906;-79
2021/10/05 07:18:33;;;;;;;40.10;36.00;;;;;;;16.51;73.46;100313.19;116876;1191;24142;-79
2021/10/05 07:21:03;;;;;;;41.70;36.80;;;;;;;16.76;73.06;100310.17;116875;1187;21893;-79
2021/10/05 07:23:32;;;;;;;36.70;33.20;;;;;;;17.04;72.37;100309.19;116918;1191;22930;-79
2021/10/05 07:26:17;;;;;;;33.50;30.20;;;;;;;17.31;71.20;100308.17;116553;1193;21878;-79
2021/10/05 07:28:50;;;;;;;39.30;34.20;;;;;;;17.47;70.16;100302.38;116490;1194;21912;-79
2021/10/05 07:31:22;;;;;;;36.70;32.80;;;;;;;17.63;69.55;100300.73;116579;1193;21897;-78
2021/10/05 07:33:52;;;;;;;35.30;31.80;;;;;;;17.77;68.97;100298.08;116650;1193;21885;-79
2021/10/05 07:36:22;;;;;;;38.90;33.80;;;;;;;18.01;69.18;100296.00;116634;1193;23023;-78
2021/10/05 07:38:52;;;;;;;36.40;32.70;;;;;;;18.23;67.68;100291.63;116668;1193;21892;-78
2021/10/05 07:41:21;;;;;;;37.10;32.40;;;;;;;18.38;66.89;100282.04;116606;1190;21890;-78
2021/10/05 07:43:51;;;;;;;34.30;30.60;;;;;;;18.52;66.35;100273.79;116557;1190;21892;-79
2021/10/05 07:46:21;;;;;;;34.90;31.10;;;;;;;18.72;65.95;100271.40;116874;1188;21998;-79
2021/10/05 07:48:51;;;;;;;34.10;30.60;;;;;;;18.88;65.18;100272.55;117214;1188;23439;-79
2021/10/05 07:51:21;;;;;;;33.20;29.80;;;;;;;19.06;64.80;100272.11;117175;1188;21915;-78
2021/10/05 07:53:54;;;;;;;33.80;30.10;;;;;;;19.21;64.01;100262.36;117101;1188;21894;-78
2021/10/05 07:56:25;;;;;;;33.50;30.10;;;;;;;19.38;63.34;100256.49;117072;1188;22924;-79
2021/10/05 07:58:55;;;;;;;37.90;31.00;;;;;;;19.44;62.27;100249.61;116573;1192;21896;-79
2021/10/05 08:01:31;;;;;;;33.50;30.10;;;;;;;19.45;62.17;100254.51;116832;1192;22060;-79
2021/10/05 08:04:01;;;;;;;32.80;29.50;;;;;;;19.54;62.08;100251.14;116865;1192;21979;-79
2021/10/05 08:06:35;;;;;;;33.20;29.70;;;;;;;19.64;61.99;100244.46;116825;1192;22910;-79
2021/10/05 08:09:08;;;;;;;33.80;30.40;;;;;;;19.81;61.68;100239.96;116856;1192;22867;-79
2021/10/05 08:11:44;;;;;;;33.40;30.10;;;;;;;19.95;61.01;100236.22;116806;1191;22583;-79
2021/10/05 08:14:30;;;;;;;31.00;28.10;;;;;;;20.02;60.67;100233.70;117067;1181;21973;-80
2021/10/05 08:17:00;;;;;;;29.40;26.50;;;;;;;20.15;60.66;100231.86;117092;1188;21879;-77
2021/10/05 08:19:44;;;;;;;29.70;26.60;;;;;;;20.38;60.58;100230.91;117143;1187;21859;-78
2021/10/05 08:22:16;;;;;;;29.30;26.20;;;;;;;20.64;60.12;100225.85;117193;1188;21879;-78
2021/10/05 08:24:46;;;;;;;26.90;24.30;;;;;;;20.82;59.24;100223.43;117244;1187;22353;-78
2021/10/05 08:27:15;;;;;;;27.70;25.10;;;;;;;20.99;58.78;100219.36;117249;1187;22152;-79
2021/10/05 08:29:49;;;;;;;27.50;25.00;;;;;;;21.13;57.82;100214.73;117208;1176;21878;-79
2021/10/05 08:32:19;;;;;;;25.70;23.20;;;;;;;21.28;57.71;100213.23;117124;1188;23461;-79
2021/10/05 08:34:49;;;;;;;26.80;24.10;;;;;;;21.47;57.42;100209.02;117262;1187;21855;-80
2021/10/05 08:37:19;;;;;;;29.40;23.10;;;;;;;21.63;56.58;100212.02;117161;1187;22649;-81
2021/10/05 08:39:49;;;;;;;27.20;24.40;;;;;;;21.60;55.51;100215.85;117295;1187;22858;-80
2021/10/05 08:42:22;;;;;;;23.70;21.50;;;;;;;21.44;55.29;100209.56;117145;1188;23530;-79
2021/10/05 08:44:52;;;;;;;25.80;23.20;;;;;;;21.29;55.45;100200.23;117299;1187;23440;-80
2021/10/05 08:47:29;;;;;;;23.60;21.30;;;;;;;21.23;56.23;100194.05;117205;1185;23440;-80
2021/10/05 08:50:02;;;;;;;22.60;20.20;;;;;;;21.37;57.01;100188.91;117260;1185;22576;-81
2021/10/05 08:52:33;;;;;;;22.60;20.50;;;;;;;21.57;56.49;100188.12;117208;1188;23531;-81
2021/10/05 08:55:09;;;;;;;21.90;19.60;;;;;;;21.73;55.94;100180.14;117175;1184;21909;-79
2021/10/05 08:57:41;;;;;;;21.20;18.60;;;;;;;21.88;55.40;100179.92;117271;1187;21886;-79
2021/10/05 09:00:15;;;;;;;19.80;17.60;;;;;;;21.97;54.95;100177.59;117081;1187;21939;-79
2021/10/05 09:02:55;;;;;;;22.60;19.10;;;;;;;22.11;54.96;100173.65;117356;1187;23431;-79
2021/10/05 09:05:33;;;;;;;21.20;18.20;;;;;;;22.22;54.61;100169.46;117252;1187;23435;-79
2021/10/05 09:08:06;;;;;;;19.50;17.20;;;;;;;22.36;54.73;100163.89;117249;1187;23445;-78
2021/10/05 09:11:12;;;;;;;20.60;15.90;;;;;;;22.49;53.98;100158.02;117178;1188;23469;-82
2021/10/05 09:14:06;;;;;;;15.40;12.90;;;;;;;22.69;53.83;100158.12;117326;1187;21873;-79
2021/10/05 09:16:36;;;;;;;18.80;14.90;;;;;;;22.77;53.22;100147.98;117106;1188;22847;-79
2021/10/05 09:19:17;;;;;;;13.80;12.40;;;;;;;22.81;53.15;100142.74;117246;1184;24130;-79
2021/10/05 09:21:53;;;;;;;26.10;14.10;;;;;;;22.91;52.95;100137.05;117130;1188;21876;-78
2021/10/05 09:24:28;;;;;;;16.70;12.60;;;;;;;23.03;52.46;100136.32;116952;1188;21913;-79
2021/10/05 09:27:03;;;;;;;12.70;11.40;;;;;;;23.15;51.92;100137.02;117094;1188;23468;-80
2021/10/05 09:29:38;;;;;;;16.20;11.60;;;;;;;23.26;51.26;100133.23;117090;1188;23532;-78
2021/10/05 09:32:14;;;;;;;15.50;10.60;;;;;;;23.40;51.09;100121.81;116992;1187;21894;-78
2021/10/05 09:35:00;;;;;;;11.70;10.50;;;;;;;23.45;50.10;100110.75;117183;1187;22919;-79
2021/10/05 09:37:35;;;;;;;11.80;10.20;;;;;;;23.59;50.79;100106.10;117083;1185;23486;-79
2021/10/05 09:40:11;;;;;;;11.70;10.20;;;;;;;23.86;50.61;100102.27;117132;1187;21915;-79
2021/10/05 09:42:47;;;;;;;11.10;9.30;;;;;;;24.08;49.73;100101.38;117169;1188;21865;-79
2021/10/05 09:45:24;;;;;;;12.70;9.80;;;;;;;24.26;48.72;100104.52;117121;1186;23747;-79
2021/10/05 09:48:00;;;;;;;11.30;9.10;;;;;;;24.42;48.15;100095.90;117231;1188;23555;-79
2021/10/05 09:50:36;;;;;;;10.60;9.50;;;;;;;24.57;47.83;100097.30;117217;1185;21890;-79
2021/10/05 09:53:13;;;;;;;10.50;8.80;;;;;;;24.69;46.97;100095.98;117134;1185;21934;-79
2021/10/05 09:55:50;;;;;;;13.60;9.00;;;;;;;24.68;46.28;100096.30;117086;1191;24033;-78
2021/10/05 09:58:26;;;;;;;13.50;10.60;;;;;;;24.69;46.22;100089.33;117172;1191;23418;-80
2021/10/05 10:00:55;;;;;;;13.10;9.20;;;;;;;24.76;46.65;100087.35;116743;1191;21898;-78
2021/10/05 10:03:27;;;;;;;11.00;9.30;;;;;;;24.83;45.77;100078.71;116785;1191;21881;-79
2021/10/05 10:05:59;;;;;;;9.00;8.20;;;;;;;24.91;45.75;100078.51;116783;1191;21927;-78
2021/10/05 10:08:34;;;;;;;12.00;9.20;;;;;;;24.96;45.14;100076.67;116869;1191;23627;-79
2021/10/05 10:11:04;;;;;;;14.00;8.80;;;;;;;25.07;45.48;100070.51;116551;1193;21882;-79
2021/10/05 10:13:35;;;;;;;9.70;8.70;;;;;;;25.29;45.33;100074.03;116657;1190;22103;-78
2021/10/05 10:16:07;;;;;;;9.60;8.60;;;;;;;25.49;44.56;100068.22;116831;1190;22989;-78
2021/10/05 10:18:59;;;;;;;11.70;8.50;;;;;;;25.54;43.89;100061.02;116905;1191;22905;-79
2021/10/05 10:21:37;;;;;;;11.40;8.30;;;;;;;25.68;44.49;100058.98;116580;1193;21903;-80
2021/10/05 10:24:18;;;;;;;12.40;8.00;;;;;;;25.91;43.41;100055.91;116485;1195;21895;-79
2021/10/05 10:26:55;;;;;;;9.30;7.60;;;;;;;25.94;42.33;100063.14;116459;1195;24172;-79
2021/10/05 10:29:45;;;;;;;8.70;7.90;;;;;;;25.93;42.50;100073.54;116409;1193;21886;-78
2021/10/05 10:32:24;;;;;;;13.20;7.80;;;;;;;25.89;42.44;100062.03;116542;1193;22629;-79
2021/10/05 10:35:11;;;;;;;11.30;7.00;;;;;;;25.92;41.91;100057.85;116488;1194;22551;-79
2021/10/05 10:37:53;;;;;;;11.80;7.70;;;;;;;25.91;41.70;100052.77;116576;1193;21903;-77
2021/10/05 10:40:37;;;;;;;9.40;7.50;;;;;;;25.95;41.83;100056.05;116518;1191;23492;-80
2021/10/05 10:43:15;;;;;;;11.80;7.80;;;;;;;26.06;42.19;100049.08;117180;1187;21887;-79
2021/10/05 10:45:52;;;;;;;9.30;7.00;;;;;;;26.26;41.53;100052.11;117111;1188;21887;-79
2021/10/05 10:48:33;;;;;;;9.70;6.70;;;;;;;26.29;40.92;100050.48;116818;1191;21898;-79
2021/10/05 10:51:17;;;;;;;9.90;7.50;;;;;;;26.24;40.89;100054.61;116841;1191;23464;-79
2021/10/05 10:53:51;;;;;;;12.80;7.80;;;;;;;26.11;40.74;100050.79;116818;1191;21876;-80
2021/10/05 10:56:36;;;;;;;12.20;7.50;;;;;;;25.98;40.91;100045.48;116794;1191;24203;-79
2021/10/05 10:59:14;;;;;;;9.50;7.90;;;;;;;25.91;40.77;100041.78;116578;1186;21898;-80
2021/10/05 11:01:46;;;;;;;10.50;7.80;;;;;;;25.70;40.85;100033.55;116643;1193;22907;-79
2021/10/05 11:04:21;;;;;;;13.20;8.20;;;;;;;25.49;41.14;100028.19;116576;1193;23068;-78
2021/10/05 11:06:57;;;;;;;13.50;7.70;;;;;;;25.31;41.29;100020.18;116697;1191;23052;-79
2021/10/05 11:09:35;;;;;;;9.00;7.20;;;;;;;25.10;41.62;100017.06;116780;1191;23460;-78
2021/10/05 11:12:09;;;;;;;8.50;6.80;;;;;;;24.94;41.93;100021.88;116756;1191;23622;-78
2021/10/05 11:14:44;;;;;;;11.20;7.90;;;;;;;24.83;42.17;100015.49;116824;1191;22821;-80
2021/10/05 11:17:17;;;;;;;8.70;7.80;;;;;;;24.75;42.26;100010.40;116724;1190;23439;-79
2021/10/05 11:19:50;;;;;;;9.30;7.00;;;;;;;24.69;42.33;100007.77;116818;1187;22116;-78
2021/10/05 11:22:20;;;;;;;9.30;7.40;;;;;;;24.67;42.57;100007.55;116854;1188;21877;-80
2021/10/05 11:24:53;;;;;;;11.60;6.80;;;;;;;24.66;42.89;100002.25;117043;1189;22104;-78